createdAt,value
2022-08-17T00:01:27.188Z,76.55
2022-08-17T00:04:30.398Z,77.58
2022-08-17T00:07:33.507Z,80.79
2022-08-17T00:10:36.563Z,86.64
2022-08-17T00:13:45.068Z,83.15
2022-08-17T00:16:55.513Z,81.35
2022-08-17T00:20:00.767Z,82.98
2022-08-17T00:23:05.502Z,84.58
2022-08-17T00:26:08.589Z,84.28
2022-08-17T00:29:19.553Z,78.12
2022-08-17T00:33:13.793Z,81.53
2022-08-17T00:35:46.365Z,78.55
2022-08-17T00:38:50.506Z,82.49
2022-08-17T00:41:53.322Z,84.31
2022-08-17T00:44:57.556Z,87.61
2022-08-17T00:48:00.341Z,85.22
2022-08-17T00:51:06.658Z,86.65
2022-08-17T00:54:11.896Z,82.30
2022-08-17T00:57:16.600Z,81.63
2022-08-17T01:00:26.589Z,76.14
2022-08-17T01:03:30.372Z,78.27
2022-08-17T01:06:33.985Z,75.44
2022-08-17T01:09:36.916Z,80.17
2022-08-17T01:12:39.728Z,75.79
2022-08-17T01:15:47.567Z,73.16
2022-08-17T01:18:51.968Z,73.03
2022-08-17T01:21:58.950Z,71.02
2022-08-17T01:25:07.220Z,73.12
2022-08-17T01:28:10.086Z,71.90
2022-08-17T01:31:15.185Z,70.56
2022-08-17T01:34:18.978Z,72.06
2022-08-17T01:37:28.361Z,70.83
2022-08-17T01:40:42.271Z,69.59
2022-08-17T01:43:46.113Z,72.55
2022-08-17T01:46:49.018Z,72.89
2022-08-17T01:49:52.033Z,74.48
2022-08-17T01:52:57.108Z,74.15
2022-08-17T01:56:02.752Z,75.25
2022-08-17T01:59:06.487Z,71.61
2022-08-17T02:02:09.740Z,71.22
2022-08-17T02:05:17.438Z,69.62
2022-08-17T02:08:20.760Z,71.03
2022-08-17T02:11:41.712Z,67.65
2022-08-17T02:14:44.463Z,70.20
2022-08-17T02:17:47.301Z,68.57
2022-08-17T02:20:57.527Z,72.37
2022-08-17T02:24:00.403Z,74.45
2022-08-17T02:27:04.912Z,70.26
2022-08-17T02:31:01.383Z,69.52
2022-08-17T02:33:41.709Z,72.73
2022-08-17T02:36:46.093Z,73.33
2022-08-17T02:39:48.915Z,80.00
2022-08-17T02:42:53.148Z,77.45
2022-08-17T02:45:56.092Z,75.98
2022-08-17T02:48:59.026Z,81.34
2022-08-17T02:52:03.901Z,74.68
2022-08-17T02:55:07.233Z,79.74
2022-08-17T02:58:12.302Z,76.87
2022-08-17T03:01:15.152Z,80.81
2022-08-17T03:04:17.991Z,85.87
2022-08-17T03:07:21.244Z,81.69
2022-08-17T03:10:26.672Z,78.52
2022-08-17T03:13:31.146Z,81.82
2022-08-17T03:16:39.362Z,80.21
2022-08-17T03:19:43.023Z,80.15
2022-08-17T03:22:48.129Z,82.74
2022-08-17T03:25:56.619Z,90.14
2022-08-17T03:29:00.868Z,88.33
2022-08-17T03:32:11.346Z,85.36
2022-08-17T03:35:15.319Z,91.62
2022-08-17T03:38:21.359Z,88.16
2022-08-17T03:41:24.221Z,83.05
2022-08-17T03:44:28.434Z,83.18
2022-08-17T03:47:48.684Z,87.33
2022-08-17T03:51:12.776Z,90.63
2022-08-17T03:54:34.518Z,77.47
2022-08-17T03:57:37.467Z,86.76
2022-08-17T04:00:45.650Z,82.83
2022-08-17T04:03:48.474Z,76.57
2022-08-17T04:06:51.244Z,73.41
2022-08-17T04:09:54.100Z,70.71
2022-08-17T04:12:58.348Z,74.91
2022-08-17T04:16:02.487Z,74.81
2022-08-17T04:19:07.378Z,75.02
2022-08-17T04:22:10.219Z,76.11
2022-08-17T04:25:34.142Z,75.98
2022-08-17T04:28:36.947Z,74.98
2022-08-17T04:31:41.152Z,76.95
2022-08-17T04:34:44.995Z,76.99
2022-08-17T04:37:47.883Z,76.08
2022-08-17T04:41:08.075Z,72.83
2022-08-17T04:44:11.678Z,70.57
2022-08-17T04:47:17.167Z,71.06
2022-08-17T04:50:19.899Z,70.09
2022-08-17T04:53:22.884Z,70.30
2022-08-17T04:56:26.290Z,70.27
2022-08-17T04:59:29.216Z,72.96
2022-08-17T05:02:33.472Z,69.04
2022-08-17T05:05:38.851Z,65.58
2022-08-17T05:08:41.786Z,62.56
2022-08-17T05:11:44.938Z,60.63
2022-08-17T05:14:47.953Z,59.78
2022-08-17T05:17:52.105Z,59.07
2022-08-17T05:20:55.000Z,60.46
2022-08-17T05:23:58.583Z,59.37
2022-08-17T05:27:06.648Z,59.51
2022-08-17T05:30:09.876Z,58.70
2022-08-17T05:33:15.803Z,60.53
2022-08-17T05:36:37.986Z,58.65
2022-08-17T05:39:43.803Z,58.84
2022-08-17T05:42:47.259Z,57.84
2022-08-17T05:45:57.090Z,56.81
2022-08-17T05:49:07.987Z,56.30
2022-08-17T05:52:19.803Z,57.70
2022-08-17T05:55:29.963Z,56.57
2022-08-17T05:58:37.012Z,57.00
2022-08-17T06:01:47.710Z,55.85
2022-08-17T06:05:09.925Z,57.30
2022-08-17T06:08:18.705Z,57.58
2022-08-17T06:11:26.991Z,56.49
2022-08-17T06:14:42.684Z,57.01
2022-08-17T06:17:45.630Z,56.93
2022-08-17T06:20:51.476Z,55.77
2022-08-17T06:23:58.297Z,54.77
2022-08-17T06:27:07.783Z,53.71
2022-08-17T06:30:13.976Z,53.86
2022-08-17T06:33:23.419Z,53.47
2022-08-17T06:36:34.916Z,53.94
2022-08-17T06:39:44.822Z,53.38
2022-08-17T06:43:02.000Z,52.26
2022-08-17T06:46:12.310Z,54.59
2022-08-17T06:49:20.026Z,53.18
2022-08-17T06:52:45.974Z,52.50
2022-08-17T06:55:54.642Z,52.49
2022-08-17T06:58:58.186Z,53.07
2022-08-17T07:02:04.878Z,53.62
2022-08-17T07:05:08.732Z,52.41
2022-08-17T07:08:18.664Z,51.75
2022-08-17T07:11:27.326Z,52.03
2022-08-17T07:14:36.808Z,52.08
2022-08-17T07:17:47.392Z,51.21
2022-08-17T07:20:52.493Z,50.11
2022-08-17T07:24:04.628Z,50.21
2022-08-17T07:27:12.506Z,50.53
2022-08-17T07:30:17.636Z,48.92
2022-08-17T07:33:25.848Z,49.27
2022-08-17T07:36:34.510Z,49.52
2022-08-17T07:40:15.550Z,49.30
2022-08-17T07:43:04.813Z,49.08
2022-08-17T07:46:32.923Z,48.32
2022-08-17T07:49:37.199Z,47.56
2022-08-17T07:52:51.274Z,48.50
2022-08-17T07:55:56.460Z,48.15
2022-08-17T07:59:07.623Z,47.27
2022-08-17T08:02:30.128Z,47.12
2022-08-17T08:05:50.617Z,46.72
2022-08-17T08:08:55.939Z,47.80
2022-08-17T08:12:00.465Z,47.39
2022-08-17T08:15:05.724Z,46.52
2022-08-17T08:18:52.482Z,46.25
2022-08-17T08:21:48.510Z,46.30
2022-08-17T08:24:57.937Z,45.76
2022-08-17T08:28:14.745Z,45.26
2022-08-17T08:31:21.972Z,45.68
2022-08-17T08:34:53.199Z,45.30
2022-08-17T08:37:57.945Z,43.95
2022-08-17T08:41:07.252Z,43.44
2022-08-17T08:44:18.717Z,43.30
2022-08-17T08:47:27.091Z,43.66
2022-08-17T08:50:38.013Z,43.42
2022-08-17T08:53:43.560Z,42.91
2022-08-17T08:57:19.736Z,42.73
2022-08-17T09:00:17.954Z,42.67
2022-08-17T09:03:50.885Z,41.68
2022-08-17T09:06:58.142Z,40.97
2022-08-17T09:10:05.186Z,37.38
2022-08-17T09:13:15.857Z,34.24
2022-08-17T09:16:23.251Z,31.64
2022-08-17T09:19:30.477Z,31.41
2022-08-17T09:22:35.109Z,29.86
2022-08-17T09:25:47.468Z,29.20
2022-08-17T09:28:51.750Z,27.49
2022-08-17T09:31:56.963Z,26.83
2022-08-17T09:35:02.080Z,26.46
2022-08-17T09:38:12.065Z,26.25
2022-08-17T09:41:17.779Z,27.89
2022-08-17T09:44:25.885Z,25.56
2022-08-17T09:47:33.841Z,25.32
2022-08-17T09:51:03.914Z,25.81
2022-08-17T09:54:34.802Z,26.16
2022-08-17T09:57:35.511Z,26.08
2022-08-17T10:00:42.441Z,25.15
2022-08-17T10:03:55.917Z,25.32
2022-08-17T10:07:02.931Z,25.06
2022-08-17T10:10:14.311Z,25.49
2022-08-17T10:13:21.415Z,25.28
2022-08-17T10:16:32.150Z,25.52
2022-08-17T10:19:39.549Z,25.59
2022-08-17T10:23:19.540Z,25.82
2022-08-17T10:26:25.873Z,26.79
2022-08-17T10:29:47.499Z,26.97
2022-08-17T10:32:55.523Z,27.40
2022-08-17T10:36:05.234Z,27.00
2022-08-17T10:39:19.925Z,27.08
2022-08-17T10:42:30.417Z,29.20
2022-08-17T10:45:38.081Z,29.68
2022-08-17T10:48:42.642Z,29.24
2022-08-17T10:51:48.032Z,29.37
2022-08-17T10:55:08.781Z,29.48
2022-08-17T10:58:21.137Z,29.47
2022-08-17T11:01:47.076Z,28.79
2022-08-17T11:04:55.854Z,26.42
2022-08-17T11:08:32.006Z,26.47
2022-08-17T11:11:52.610Z,27.64
2022-08-17T11:15:13.234Z,26.40
2022-08-17T11:18:31.463Z,27.79
2022-08-17T11:21:52.828Z,27.75
2022-08-17T11:24:55.919Z,28.01
2022-08-17T11:28:08.503Z,25.65
2022-08-17T11:31:38.402Z,26.61
2022-08-17T11:34:44.682Z,30.86
2022-08-17T11:37:52.278Z,31.32
2022-08-17T11:41:09.070Z,30.08
2022-08-17T11:44:24.192Z,29.41
2022-08-17T11:48:16.162Z,30.89
2022-08-17T11:51:32.228Z,30.93
2022-08-17T11:54:39.576Z,30.02
2022-08-17T11:58:06.503Z,30.59
2022-08-17T12:01:13.636Z,29.79
2022-08-17T12:04:25.631Z,29.97
2022-08-17T12:07:30.259Z,28.19
2022-08-17T12:10:35.549Z,26.96
2022-08-17T12:13:43.395Z,28.90
2022-08-17T12:16:58.852Z,27.78
2022-08-17T12:20:10.252Z,30.44
2022-08-17T12:23:18.528Z,29.43
2022-08-17T12:26:23.206Z,30.03
2022-08-17T12:29:35.566Z,30.21
2022-08-17T12:32:48.172Z,26.50
2022-08-17T12:35:59.439Z,30.13
2022-08-17T12:39:13.772Z,27.03
2022-08-17T12:42:22.846Z,29.06
2022-08-17T12:45:27.152Z,27.13
2022-08-17T12:48:32.268Z,28.88
2022-08-17T12:51:35.536Z,28.94
2022-08-17T12:54:53.694Z,27.49
2022-08-17T12:57:58.501Z,29.22
2022-08-17T13:01:05.486Z,27.75
2022-08-17T13:04:14.182Z,26.08
2022-08-17T13:07:28.248Z,26.61
2022-08-17T13:10:33.254Z,26.18
2022-08-17T13:13:39.164Z,26.64
2022-08-17T13:16:48.369Z,24.03
2022-08-17T13:19:52.716Z,26.71
2022-08-17T13:22:57.949Z,26.22
2022-08-17T13:26:04.504Z,26.40
2022-08-17T13:29:24.132Z,25.68
2022-08-17T13:32:35.978Z,26.90
2022-08-17T13:35:50.535Z,28.58
2022-08-17T13:39:05.557Z,30.42
2022-08-17T13:42:28.759Z,28.75
2022-08-17T13:45:39.198Z,29.68
2022-08-17T13:48:42.267Z,28.92
2022-08-17T13:51:47.966Z,26.33
2022-08-17T13:54:52.626Z,29.57
2022-08-17T13:58:05.101Z,28.15
2022-08-17T14:01:25.232Z,28.53
2022-08-17T14:04:31.647Z,28.47
2022-08-17T14:07:37.361Z,28.92
2022-08-17T14:10:40.158Z,30.79
2022-08-17T14:13:43.013Z,31.63
2022-08-17T14:16:46.845Z,33.68
2022-08-17T14:19:49.865Z,35.92
2022-08-17T14:22:55.779Z,36.08
2022-08-17T14:25:58.605Z,30.58
2022-08-17T14:29:01.759Z,31.71
2022-08-17T14:32:18.028Z,33.14
2022-08-17T14:35:23.271Z,30.86
2022-08-17T14:38:28.055Z,32.75
2022-08-17T14:41:31.037Z,31.71
2022-08-17T14:44:33.937Z,31.75
2022-08-17T14:47:37.550Z,33.12
2022-08-17T14:50:41.675Z,34.22
2022-08-17T14:53:46.220Z,35.71
2022-08-17T14:56:48.993Z,34.40
2022-08-17T14:59:59.870Z,32.39
2022-08-17T15:03:03.135Z,34.87
2022-08-17T15:06:06.329Z,35.70
2022-08-17T15:09:11.024Z,35.53
2022-08-17T15:12:17.142Z,35.96
2022-08-17T15:15:19.971Z,37.36
2022-08-17T15:18:22.919Z,36.30
2022-08-17T15:21:25.731Z,40.08
2022-08-17T15:24:30.196Z,38.41
2022-08-17T15:27:33.108Z,38.08
2022-08-17T15:30:36.295Z,37.75
2022-08-17T15:33:39.250Z,38.69
2022-08-17T15:36:49.235Z,40.22
2022-08-17T15:39:54.136Z,42.33
2022-08-17T15:42:57.885Z,45.99
2022-08-17T15:46:02.164Z,45.41
2022-08-17T15:49:05.019Z,46.32
2022-08-17T15:52:16.148Z,46.20
2022-08-17T15:55:24.181Z,47.26
2022-08-17T15:58:32.198Z,48.70
2022-08-17T16:02:15.426Z,46.74
2022-08-17T16:05:03.527Z,46.79
2022-08-17T16:08:06.696Z,47.04
2022-08-17T16:11:11.272Z,49.29
2022-08-17T16:14:14.056Z,49.21
2022-08-17T16:17:38.535Z,50.38
2022-08-17T16:20:40.747Z,50.95
2022-08-17T16:23:43.708Z,52.08
2022-08-17T16:26:47.831Z,51.82
2022-08-17T16:29:55.522Z,53.05
2022-08-17T16:33:00.328Z,52.74
2022-08-17T16:36:03.239Z,53.37
2022-08-17T16:39:06.135Z,54.59
2022-08-17T16:42:24.561Z,54.69
2022-08-17T16:45:28.919Z,54.37
2022-08-17T16:48:32.004Z,53.89
2022-08-17T16:51:34.908Z,54.25
2022-08-17T16:54:38.414Z,56.29
2022-08-17T16:57:47.550Z,55.59
2022-08-17T17:00:59.990Z,56.05
2022-08-17T17:04:04.862Z,56.47
2022-08-17T17:07:12.142Z,57.08
2022-08-17T17:10:17.054Z,57.28
2022-08-17T17:13:25.788Z,57.02
2022-08-17T17:16:35.013Z,59.19
2022-08-17T17:19:39.023Z,59.15
2022-08-17T17:22:45.666Z,59.13
2022-08-17T17:25:54.877Z,58.59
2022-08-17T17:29:05.021Z,57.86
2022-08-17T17:32:17.301Z,56.94
2022-08-17T17:35:24.327Z,58.77
2022-08-17T17:38:30.322Z,58.39
2022-08-17T17:41:38.211Z,59.48
2022-08-17T17:44:45.887Z,60.96
2022-08-17T17:47:52.857Z,61.04
2022-08-17T17:51:00.383Z,60.20
2022-08-17T17:54:09.801Z,57.90
2022-08-17T17:57:21.433Z,56.70
2022-08-17T18:00:31.596Z,59.67
2022-08-17T18:03:49.339Z,59.45
2022-08-17T18:07:03.968Z,57.11
2022-08-17T18:10:19.445Z,55.84
2022-08-17T18:13:35.564Z,55.29
2022-08-17T18:16:42.949Z,58.55
2022-08-17T18:19:47.393Z,55.76
2022-08-17T18:22:50.585Z,53.92
2022-08-17T18:25:54.819Z,53.30
2022-08-17T18:28:58.233Z,52.42
2022-08-17T18:32:16.327Z,52.40
2022-08-17T18:35:35.267Z,49.02
2022-08-17T18:38:39.050Z,49.82
2022-08-17T18:41:43.525Z,49.28
2022-08-17T18:44:49.580Z,50.22
2022-08-17T18:47:56.047Z,50.89
2022-08-17T18:51:01.363Z,50.45
2022-08-17T18:54:06.802Z,52.87
2022-08-17T18:57:12.879Z,52.00
2022-08-17T19:00:17.494Z,50.42
2022-08-17T19:03:25.296Z,48.68
2022-08-17T19:06:37.644Z,46.72
2022-08-17T19:09:46.708Z,50.16
2022-08-17T19:12:53.936Z,48.35
2022-08-17T19:16:14.491Z,49.05
2022-08-17T19:19:22.138Z,49.20
2022-08-17T19:22:29.183Z,50.56
2022-08-17T19:25:35.663Z,51.48
2022-08-17T19:28:42.512Z,53.11
2022-08-17T19:31:51.524Z,48.77
2022-08-17T19:35:01.137Z,49.47
2022-08-17T19:38:13.161Z,49.51
2022-08-17T19:41:20.804Z,50.56
2022-08-17T19:44:32.317Z,51.47
2022-08-17T19:47:58.551Z,50.12
2022-08-17T19:51:05.332Z,51.23
2022-08-17T19:54:24.364Z,51.95
2022-08-17T19:57:39.384Z,53.17
2022-08-17T20:00:47.807Z,51.81
2022-08-17T20:04:01.043Z,52.43
2022-08-17T20:07:13.610Z,51.88
2022-08-17T20:10:22.020Z,50.96
2022-08-17T20:13:33.202Z,48.85
2022-08-17T20:16:38.044Z,49.17
2022-08-17T20:19:48.243Z,49.23
2022-08-17T20:22:54.747Z,49.41
2022-08-17T20:26:04.419Z,49.45
2022-08-17T20:29:09.572Z,49.61
2022-08-17T20:32:19.663Z,49.52
2022-08-17T20:35:24.536Z,50.44
2022-08-17T20:38:39.505Z,50.04
2022-08-17T20:42:03.385Z,50.03
2022-08-17T20:45:21.018Z,50.10
2022-08-17T20:48:37.920Z,51.94
2022-08-17T20:52:00.847Z,51.45
2022-08-17T20:55:05.199Z,50.65
2022-08-17T20:58:23.348Z,50.56
2022-08-17T21:01:39.077Z,50.45
2022-08-17T21:04:47.377Z,49.24
2022-08-17T21:07:55.707Z,50.16
2022-08-17T21:11:00.161Z,49.14
2022-08-17T21:14:08.441Z,48.51
2022-08-17T21:17:29.733Z,48.48
2022-08-17T21:20:37.574Z,49.65
2022-08-17T21:23:52.595Z,49.06
2022-08-17T21:27:02.140Z,47.97
2022-08-17T21:30:15.883Z,47.61
2022-08-17T21:33:25.587Z,48.19
2022-08-17T21:36:28.499Z,47.96
2022-08-17T21:39:33.219Z,49.01
2022-08-17T21:42:38.413Z,49.42
2022-08-17T21:45:43.023Z,50.08
2022-08-17T21:48:49.443Z,50.46
2022-08-17T21:51:57.784Z,50.41
2022-08-17T21:55:02.541Z,50.46
2022-08-17T21:58:13.719Z,50.79
2022-08-17T22:01:22.690Z,51.35
2022-08-17T22:04:31.746Z,52.53
2022-08-17T22:07:36.147Z,53.33
2022-08-17T22:10:41.216Z,53.72
2022-08-17T22:13:44.337Z,54.73
2022-08-17T22:16:47.190Z,54.71
2022-08-17T22:19:53.534Z,54.34
2022-08-17T22:23:24.894Z,56.28
2022-08-17T22:26:55.366Z,56.76
2022-08-17T22:29:59.720Z,56.26
2022-08-17T22:33:03.254Z,55.53
2022-08-17T22:36:11.774Z,55.73
2022-08-17T22:39:29.403Z,55.17
2022-08-17T22:42:47.380Z,55.62
2022-08-17T22:45:51.572Z,57.62
2022-08-17T22:48:57.768Z,57.42
2022-08-17T22:52:03.262Z,56.42
2022-08-17T22:55:28.078Z,56.30
2022-08-17T22:58:58.895Z,56.25
2022-08-17T23:02:14.207Z,56.50
2022-08-17T23:05:22.937Z,55.94
2022-08-17T23:08:27.284Z,57.97
2022-08-17T23:11:36.593Z,58.62
2022-08-17T23:14:57.457Z,57.37
2022-08-17T23:18:04.815Z,59.11
2022-08-17T23:21:07.887Z,60.40
2022-08-17T23:24:13.619Z,60.39
2022-08-17T23:27:16.435Z,60.29
2022-08-17T23:30:19.443Z,59.99
2022-08-17T23:33:25.736Z,60.28
2022-08-17T23:36:29.543Z,59.47
2022-08-17T23:39:34.029Z,60.33
2022-08-17T23:42:39.852Z,60.26
2022-08-17T23:45:49.211Z,59.14
2022-08-17T23:48:54.166Z,60.24
2022-08-17T23:51:57.007Z,61.35
2022-08-17T23:55:01.253Z,61.47
2022-08-17T23:58:05.448Z,61.00
